She Twins — OS8608 — position and weather

sailwx.info

Track history (hours):
 
Tides and Currents Weather Stations Pressure Air Temp Water Temp Dewpoint Dewpoint Depression Visibility Wind Speed Wind Dir Waves Ship Positions

She Twins

Last reported at 2017-Sep-06 08:48 UTC. Time now 2017-Oct-20 16:25 UTC.
Position N 37°02' W 008°13'.
Warning: this ship's position is 44 days out of date.

Length 11 m.

Type: Sailing vessel. MMSI: 205860800.

Date/timePositionNaut miles runAvg speedWind from/ knotsBaromVisibWave heightAir tempDewpointWater temp
2017-Sep-06 08:48N 37°02' W 008°13'2 4.0
2017-Sep-06 08:11N 37°04' W 008°15'  
2017-Sep-03 15:24N 37°04' W 008°17'2 5.3
2017-Sep-03 15:00N 37°04' W 008°20'7 5.1
2017-Sep-03 13:40N 37°05' W 008°28'1 4.1
2017-Sep-03 13:29N 37°05' W 008°29'4 4.8
2017-Sep-03 12:40N 37°06' W 008°34'1 4.9
2017-Sep-03 12:29N 37°07' W 008°35'2 4.1
2017-Sep-03 11:59N 37°08' W 008°37'  
Track history (hours):
 
Tides and Currents Weather Stations Pressure Air Temp Water Temp Dewpoint Dewpoint Depression Visibility Wind Speed Wind Dir Waves Ship Positions

She Twins

Last reported at 2017-Sep-06 08:48 UTC. Time now 2017-Oct-20 16:25 UTC.
Position N 37°02' W 008°13'.
Warning: this ship's position is 44 days out of date.

Length 11 m.

Type: Sailing vessel. MMSI: 205860800.

Date/timePositionNaut miles runAvg speedWind from/ knotsBaromVisibWave heightAir tempDewpointWater temp
2017-Sep-06 08:48N 37°02' W 008°13'2 4.0
2017-Sep-06 08:11N 37°04' W 008°15'  
2017-Sep-03 15:24N 37°04' W 008°17'2 5.3
2017-Sep-03 15:00N 37°04' W 008°20'7 5.1
2017-Sep-03 13:40N 37°05' W 008°28'1 4.1
2017-Sep-03 13:29N 37°05' W 008°29'4 4.8
2017-Sep-03 12:40N 37°06' W 008°34'1 4.9
2017-Sep-03 12:29N 37°07' W 008°35'2 4.1
2017-Sep-03 11:59N 37°08' W 008°37'  

Dump ship's entire track history